الصفحة الرئيسية
METAR-TAF:

METAR-TAF

مطار :

جزر برمودا, جزر برمودا

دائرة عرض: 32-22N, خط طول: 064-41W, ارتفاع: 6 متر

مراقبة الطقس الحالي

تاريخ ووقت الإصدار 48 دقيقة قبل الساعة 21:55UTC
ريح 12 عقدة من الجنوب/الجنوب الغربي
درجة الحرارة 27°درجة مئوية
الرطوبة 79%
ضغط 1023 hPa
الرؤية 10 كم أو أكثر
غيوم قليلة على ارتفاع 2000 قدم
غيوم قليلة على ارتفاع 7000 قدم

METAR: TXKF 242155Z 21012KT 9999 FEW020 FEW070 27/23 Q1023

زمن: 19:43 (22:43 UTC)

توقعات

تاريخ ووقت الإصدار 5ساعات و 8 دقيقة قبل الساعة 17:35UTC
التوقعات صالحة من24 الساعة 18 UTC إلى 25 الساعة 18 UTC
ريح 12 عقدة من الجنوب/الجنوب الغربي
الرؤية 10 كم أو أكثر
غيوم متفرقة على ارتفاع 1500 قدم

TAF: TXKF 241735Z 2418/2518 20012KT 9999 SCT015

أرصاد الطقس والتوقعات من أكثر من 4000 مطار (تقارير الطقس للمطار METAR والتنبؤ بالطقس بالمطارTAF).

المحطات المتاحة هي النقط الصفراء والحمراء على الخريطة.

حرك المؤشر فوق النقطة لمعرفة اسم المحطة.

ثم انقر لمعرفة أرصاد وتوقعات الطقس.

لتغيير الخارطة: اضغط على الأزرار الخضراء مع رمز الصليب الأسود للتكبير. على الزر الأخضر مع شرطة للتصغير، أو على الأسهم الخضراء للخرائط المجاورة.


METAR-TAF: